PWSweather.com
Personal Weather Stations
Station Observations
INORDPAS37
Bondues, BonduesFR 59910

BonduesBonduesFR 59910

Lat: 50.7, Lon: 3.09

Elevation: 66

Station Type: NetAtmo

High Low Average
Temperature 66.9°F19.4°F 56.7°F13.7°F 62.2°F16.8°F
Dew Point 52.0°F11.1°F 42.8°F6.0°F 47.8°F8.8°F
Winds 3.8 mph SW6.1 mph SW 0.6 mph 1.0 mph 1.6 mph 2.6 mph
Wind Gusts 9.4 mph15.1 mph -- 3.1 mph5.0 mph
Humidity 69% 57% 64%
Pressure 30.28 in1025.40 in 30.18 in1022.00 in -
Precipitation 0.16 in4.10 in - -
Hour Temp Dew Point Humidity Winds Wind Gusts Pressure Precip Precip Rate Daily Precip Total
12:12 AM 59.9°F15.5°C 42.8°F6.0°C 57% 0.7 mph SW1.1 kmh SW 1.3 mph2.1 kmh 30.27 in1025.1 mb 0.00 in0.0 mm 0.00 in0.0 mm 0.00 in0.0 mm
12:33 AM 59.7°F15.4°C 43.0°F6.1°C 58% 0.7 mph SW1.1 kmh SW 1.8 mph2.9 kmh 30.28 in1025.4 mb 0.00 in0.0 mm 0.00 in0.0 mm 0.00 in0.0 mm
12:51 AM 59.7°F15.4°C 43.0°F6.1°C 58% 0.6 mph SW1.0 kmh SW -- 30.28 in1025.4 mb 0.00 in0.0 mm 0.00 in0.0 mm 0.00 in0.0 mm
12:53 AM 59.4°F15.2°C 42.8°F6.0°C 58% 0.7 mph SW1.1 kmh SW 1.3 mph2.1 kmh 30.27 in1025.1 mb 0.00 in0.0 mm 0.00 in0.0 mm 0.00 in0.0 mm
01:13 AM 59.0°F15.0°C 42.8°F6.0°C 59% 1.3 mph SW2.1 kmh SW 3.1 mph5.0 kmh 30.28 in1025.4 mb 0.00 in0.0 mm 0.01 in0.3 mm 0.00 in0.0 mm
01:34 AM 58.6°F14.8°C 42.8°F6.0°C 60% 1.3 mph SW2.1 kmh SW 3.8 mph6.1 kmh 30.27 in1025.1 mb 0.00 in0.0 mm 0.00 in0.0 mm 0.00 in0.0 mm
01:51 AM 58.6°F14.8°C 42.8°F6.0°C 60% 1.2 mph SW1.9 kmh SW -- 30.27 in1025.1 mb 0.00 in0.0 mm 0.00 in0.0 mm 0.00 in0.0 mm
01:53 AM 58.3°F14.6°C 43.0°F6.1°C 61% 0.7 mph SSW1.1 kmh SSW 1.8 mph2.9 kmh 30.25 in1024.4 mb 0.00 in0.0 mm 0.00 in0.0 mm 0.00 in0.0 mm
02:19 AM 58.1°F14.5°C 43.2°F6.2°C 62% 1.3 mph SW2.1 kmh SW 2.5 mph4.0 kmh 30.26 in1024.7 mb 0.00 in0.0 mm 0.00 in0.0 mm 0.01 in0.3 mm
02:39 AM 58.1°F14.5°C 43.2°F6.2°C 62% 0.6 mph SW1.0 kmh SW -- 30.26 in1024.7 mb 0.00 in0.0 mm 0.00 in0.0 mm 0.01 in0.3 mm
02:59 AM 57.7°F14.3°C 43.2°F6.2°C 63% 1.3 mph WSW2.1 kmh WSW 3.1 mph5.0 kmh 30.27 in1025.1 mb 0.00 in0.0 mm 0.00 in0.0 mm 0.01 in0.3 mm
03:17 AM 57.6°F14.2°C 43.3°F6.3°C 64% 1.8 mph WSW2.9 kmh WSW 3.8 mph6.1 kmh 30.26 in1024.7 mb 0.01 in0.3 mm 0.01 in0.3 mm 0.02 in0.5 mm
03:36 AM 57.2°F14.0°C 43.2°F6.2°C 64% 1.3 mph WSW2.1 kmh WSW 2.5 mph4.0 kmh 30.25 in1024.4 mb 0.02 in0.5 mm 0.04 in1.0 mm 0.03 in0.8 mm
03:51 AM 57.2°F14.0°C 43.2°F6.2°C 64% 1.2 mph WSW1.9 kmh WSW -- 30.25 in1024.4 mb 0.02 in0.5 mm 0.00 in0.0 mm 0.03 in0.8 mm
04:04 AM 57.0°F13.9°C 43.3°F6.3°C 65% 1.3 mph SW2.1 kmh SW 2.5 mph4.0 kmh 30.25 in1024.4 mb 0.02 in0.5 mm 0.00 in0.0 mm 0.03 in0.8 mm
04:16 AM 56.8°F13.8°C 43.2°F6.2°C 65% 0.7 mph SW1.1 kmh SW 1.3 mph2.1 kmh 30.25 in1024.4 mb 0.02 in0.5 mm 0.00 in0.0 mm 0.04 in1.0 mm
04:36 AM 56.8°F13.8°C 43.2°F6.2°C 65% 0.7 mph SSE1.1 kmh SSE 1.3 mph2.1 kmh 30.25 in1024.4 mb 0.01 in0.3 mm 0.00 in0.0 mm 0.04 in1.0 mm
04:51 AM 56.8°F13.8°C 43.2°F6.2°C 65% 0.6 mph SSE1.0 kmh SSE -- 30.25 in1024.4 mb 0.01 in0.3 mm 0.00 in0.0 mm 0.04 in1.0 mm
04:56 AM 56.8°F13.8°C 43.5°F6.4°C 66% 0.7 mph E1.1 kmh E 2.5 mph4.0 kmh 30.24 in1024.0 mb 0.00 in0.0 mm 0.00 in0.0 mm 0.04 in1.0 mm
05:17 AM 56.7°F13.7°C 43.3°F6.3°C 66% 0.7 mph E1.1 kmh E 1.8 mph2.9 kmh 30.24 in1024.0 mb 0.00 in0.0 mm 0.00 in0.0 mm 0.04 in1.0 mm
05:36 AM 56.7°F13.7°C 43.7°F6.5°C 67% 1.3 mph SE2.1 kmh SE 2.5 mph4.0 kmh 30.24 in1024.0 mb 0.00 in0.0 mm 0.00 in0.0 mm 0.04 in1.0 mm
05:51 AM 56.7°F13.7°C 43.7°F6.5°C 67% 1.2 mph SE1.9 kmh SE -- 30.24 in1024.0 mb 0.00 in0.0 mm 0.00 in0.0 mm 0.04 in1.0 mm
05:57 AM 56.7°F13.7°C 43.7°F6.5°C 67% 1.3 mph ESE2.1 kmh ESE 3.1 mph5.0 kmh 30.24 in1024.0 mb 0.00 in0.0 mm 0.04 in1.0 mm 0.04 in1.0 mm
06:11 AM 56.7°F13.7°C 43.7°F6.5°C 67% 1.3 mph SE2.1 kmh SE 3.8 mph6.1 kmh 30.24 in1024.0 mb 0.00 in0.0 mm 0.00 in0.0 mm 0.04 in1.0 mm
06:31 AM 56.8°F13.8°C 44.4°F6.9°C 68% 1.3 mph SSE2.1 kmh SSE 3.1 mph5.0 kmh 30.24 in1024.0 mb 0.00 in0.0 mm 0.00 in0.0 mm 0.04 in1.0 mm
06:51 AM 56.8°F13.8°C 44.4°F6.9°C 68% 1.3 mph ESE2.1 kmh ESE 3.1 mph5.0 kmh 30.23 in1023.7 mb 0.00 in0.0 mm 0.00 in0.0 mm 0.04 in1.0 mm
07:11 AM 56.8°F13.8°C 44.4°F6.9°C 68% 1.8 mph SE2.9 kmh SE 4.3 mph6.9 kmh 30.24 in1024.0 mb 0.00 in0.0 mm 0.00 in0.0 mm 0.04 in1.0 mm
07:32 AM 56.8°F13.8°C 44.4°F6.9°C 68% 1.8 mph SE2.9 kmh SE 4.3 mph6.9 kmh 30.25 in1024.4 mb 0.00 in0.0 mm 0.00 in0.0 mm 0.04 in1.0 mm
07:51 AM 57.0°F13.9°C 45.0°F7.2°C 69% 1.3 mph SE2.1 kmh SE 3.8 mph6.1 kmh 30.25 in1024.4 mb 0.00 in0.0 mm 0.00 in0.0 mm 0.04 in1.0 mm
08:19 AM 57.4°F14.1°C 45.3°F7.4°C 69% 1.3 mph SE2.1 kmh SE 3.8 mph6.1 kmh 30.25 in1024.4 mb 0.00 in0.0 mm 0.00 in0.0 mm 0.04 in1.0 mm
08:39 AM 57.9°F14.4°C 45.7°F7.6°C 69% 1.2 mph SE1.9 kmh SE -- 30.25 in1024.4 mb 0.00 in0.0 mm 0.00 in0.0 mm 0.04 in1.0 mm
09:00 AM 58.5°F14.7°C 46.2°F7.9°C 69% 1.8 mph SE2.9 kmh SE 5.6 mph9.0 kmh 30.25 in1024.4 mb 0.00 in0.0 mm 0.00 in0.0 mm 0.04 in1.0 mm
09:19 AM 59.0°F15.0°C 46.8°F8.2°C 69% 1.8 mph SE2.9 kmh SE 4.3 mph6.9 kmh 30.24 in1024.0 mb 0.00 in0.0 mm 0.00 in0.0 mm 0.04 in1.0 mm
09:40 AM 59.7°F15.4°C 47.5°F8.6°C 69% 1.2 mph SE1.9 kmh SE -- 30.24 in1024.0 mb 0.00 in0.0 mm 0.00 in0.0 mm 0.04 in1.0 mm
10:00 AM 61.2°F16.2°C 48.9°F9.4°C 69% 1.8 mph SE2.9 kmh SE 6.9 mph11.1 kmh 30.24 in1024.0 mb 0.00 in0.0 mm 0.00 in0.0 mm 0.04 in1.0 mm
10:20 AM 62.4°F16.9°C 49.6°F9.8°C 68% 1.8 mph S2.9 kmh S 7.4 mph11.9 kmh 30.24 in1024.0 mb 0.00 in0.0 mm 0.00 in0.0 mm 0.04 in1.0 mm
10:40 AM 63.7°F17.6°C 50.9°F10.5°C 68% 2.5 mph SSE4.0 kmh SSE -- 30.24 in1024.0 mb 0.00 in0.0 mm 0.00 in0.0 mm 0.04 in1.0 mm
10:59 AM 64.6°F18.1°C 50.9°F10.5°C 66% 3.8 mph SW6.1 kmh SW 9.4 mph15.1 kmh 30.23 in1023.7 mb 0.00 in0.0 mm 0.00 in0.0 mm 0.04 in1.0 mm
11:16 AM 64.8°F18.2°C 50.7°F10.4°C 65% 3.1 mph S5.0 kmh S 8.1 mph13.0 kmh 30.23 in1023.7 mb 0.00 in0.0 mm 0.00 in0.0 mm 0.04 in1.0 mm
11:35 AM 65.3°F18.5°C 51.3°F10.7°C 65% 2.5 mph SSE4.0 kmh SSE 5.6 mph9.0 kmh 30.23 in1023.7 mb 0.00 in0.0 mm 0.00 in0.0 mm 0.04 in1.0 mm
11:51 AM 65.3°F18.5°C 51.3°F10.7°C 65% 2.5 mph SSE4.0 kmh SSE -- 30.23 in1023.7 mb 0.00 in0.0 mm 0.00 in0.0 mm 0.04 in1.0 mm
11:56 AM 65.8°F18.8°C 51.6°F10.9°C 65% 3.1 mph SE5.0 kmh SE 9.4 mph15.1 kmh 30.22 in1023.4 mb 0.00 in0.0 mm 0.00 in0.0 mm 0.04 in1.0 mm
12:16 PM 66.6°F19.2°C 52.0°F11.1°C 64% 2.5 mph S4.0 kmh S 6.9 mph11.1 kmh 30.22 in1023.4 mb 0.00 in0.0 mm 0.00 in0.0 mm 0.04 in1.0 mm
12:33 PM 66.9°F19.4°C 51.4°F10.8°C 62% 1.8 mph S2.9 kmh S 5.6 mph9.0 kmh 30.22 in1023.4 mb 0.00 in0.0 mm 0.00 in0.0 mm 0.04 in1.0 mm
12:51 PM 66.9°F19.4°C 51.4°F10.8°C 62% 1.9 mph S3.1 kmh S -- 30.22 in1023.4 mb 0.00 in0.0 mm 0.00 in0.0 mm 0.04 in1.0 mm
12:53 PM 66.9°F19.4°C 51.4°F10.8°C 62% 2.5 mph S4.0 kmh S 6.9 mph11.1 kmh 30.22 in1023.4 mb 0.00 in0.0 mm 0.00 in0.0 mm 0.04 in1.0 mm
01:13 PM 66.7°F19.3°C 50.9°F10.5°C 61% 3.8 mph S6.1 kmh S 7.4 mph11.9 kmh 30.21 in1023.0 mb 0.00 in0.0 mm 0.00 in0.0 mm 0.04 in1.0 mm
01:34 PM 66.4°F19.1°C 50.9°F10.5°C 62% 3.8 mph S6.1 kmh S 8.1 mph13.0 kmh 30.21 in1023.0 mb 0.00 in0.0 mm 0.00 in0.0 mm 0.04 in1.0 mm
01:51 PM 66.4°F19.1°C 50.9°F10.5°C 62% 3.7 mph S6.0 kmh S -- 30.21 in1023.0 mb 0.00 in0.0 mm 0.00 in0.0 mm 0.04 in1.0 mm
01:54 PM 66.9°F19.4°C 51.4°F10.8°C 62% 3.1 mph S5.0 kmh S 6.9 mph11.1 kmh 30.21 in1023.0 mb 0.00 in0.0 mm 0.00 in0.0 mm 0.04 in1.0 mm
02:14 PM 66.4°F19.1°C 50.9°F10.5°C 62% 2.5 mph S4.0 kmh S 6.9 mph11.1 kmh 30.20 in1022.7 mb 0.00 in0.0 mm 0.00 in0.0 mm 0.04 in1.0 mm
02:34 PM 66.2°F19.0°C 50.7°F10.4°C 62% 3.8 mph SSE6.1 kmh SSE 6.9 mph11.1 kmh 30.20 in1022.7 mb 0.00 in0.0 mm 0.00 in0.0 mm 0.04 in1.0 mm
02:51 PM 66.2°F19.0°C 50.7°F10.4°C 62% 3.7 mph SSE6.0 kmh SSE -- 30.20 in1022.7 mb 0.00 in0.0 mm 0.00 in0.0 mm 0.04 in1.0 mm
02:54 PM 65.8°F18.8°C 50.4°F10.2°C 62% 3.1 mph S5.0 kmh S 6.9 mph11.1 kmh 30.20 in1022.7 mb 0.00 in0.0 mm 0.00 in0.0 mm 0.04 in1.0 mm
03:15 PM 66.0°F18.9°C 50.5°F10.3°C 62% 1.8 mph SSE2.9 kmh SSE 4.3 mph6.9 kmh 30.20 in1022.7 mb 0.00 in0.0 mm 0.00 in0.0 mm 0.04 in1.0 mm
03:34 PM 66.2°F19.0°C 50.7°F10.4°C 62% 2.5 mph S4.0 kmh S 7.4 mph11.9 kmh 30.19 in1022.4 mb 0.00 in0.0 mm 0.00 in0.0 mm 0.04 in1.0 mm
03:51 PM 66.2°F19.0°C 50.7°F10.4°C 62% 2.5 mph S4.0 kmh S -- 30.19 in1022.4 mb 0.00 in0.0 mm 0.00 in0.0 mm 0.04 in1.0 mm
03:55 PM 66.7°F19.3°C 51.3°F10.7°C 62% 2.5 mph S4.0 kmh S 5.6 mph9.0 kmh 30.19 in1022.4 mb 0.00 in0.0 mm 0.00 in0.0 mm 0.04 in1.0 mm
04:15 PM 66.9°F19.4°C 51.1°F10.6°C 61% 2.5 mph SSE4.0 kmh SSE 5.6 mph9.0 kmh 30.19 in1022.4 mb 0.00 in0.0 mm 0.00 in0.0 mm 0.04 in1.0 mm
04:35 PM 66.2°F19.0°C 50.7°F10.4°C 62% 1.8 mph SE2.9 kmh SE 4.3 mph6.9 kmh 30.19 in1022.4 mb 0.00 in0.0 mm 0.00 in0.0 mm 0.04 in1.0 mm
04:51 PM 66.2°F19.0°C 50.7°F10.4°C 62% 1.9 mph SE3.1 kmh SE -- 30.19 in1022.4 mb 0.00 in0.0 mm 0.00 in0.0 mm 0.04 in1.0 mm
04:56 PM 65.8°F18.8°C 50.4°F10.2°C 62% 2.5 mph S4.0 kmh S 4.9 mph7.9 kmh 30.19 in1022.4 mb 0.00 in0.0 mm 0.00 in0.0 mm 0.04 in1.0 mm
05:16 PM 65.8°F18.8°C 50.4°F10.2°C 62% 2.5 mph S4.0 kmh S 7.4 mph11.9 kmh 30.19 in1022.4 mb 0.00 in0.0 mm 0.00 in0.0 mm 0.04 in1.0 mm
05:37 PM 65.5°F18.6°C 50.2°F10.1°C 62% 1.9 mph S3.1 kmh S -- 30.19 in1022.4 mb 0.00 in0.0 mm 0.00 in0.0 mm 0.04 in1.0 mm
05:56 PM 65.5°F18.6°C 50.5°F10.3°C 63% 0.7 mph S1.1 kmh S 2.5 mph4.0 kmh 30.19 in1022.4 mb 0.00 in0.0 mm 0.00 in0.0 mm 0.04 in1.0 mm
06:16 PM 65.3°F18.5°C 50.4°F10.2°C 63% 1.3 mph S2.1 kmh S 3.1 mph5.0 kmh 30.19 in1022.4 mb 0.00 in0.0 mm 0.00 in0.0 mm 0.04 in1.0 mm
06:35 PM 65.1°F18.4°C 50.2°F10.1°C 63% 1.3 mph SE2.1 kmh SE 4.3 mph6.9 kmh 30.19 in1022.4 mb 0.00 in0.0 mm 0.00 in0.0 mm 0.04 in1.0 mm
06:51 PM 65.1°F18.4°C 50.2°F10.1°C 63% 1.2 mph SE1.9 kmh SE -- 30.19 in1022.4 mb 0.00 in0.0 mm 0.00 in0.0 mm 0.04 in1.0 mm
06:56 PM 64.9°F18.3°C 50.0°F10.0°C 63% 1.3 mph SE2.1 kmh SE 3.1 mph5.0 kmh 30.19 in1022.4 mb 0.00 in0.0 mm 0.00 in0.0 mm 0.04 in1.0 mm
07:15 PM 64.9°F18.3°C 50.0°F10.0°C 63% 1.3 mph SE2.1 kmh SE 3.1 mph5.0 kmh 30.19 in1022.4 mb 0.00 in0.0 mm 0.00 in0.0 mm 0.04 in1.0 mm
07:33 PM 64.8°F18.2°C 50.2°F10.1°C 64% 1.3 mph SE2.1 kmh SE 3.8 mph6.1 kmh 30.18 in1022.0 mb 0.00 in0.0 mm 0.00 in0.0 mm 0.04 in1.0 mm
07:51 PM 64.8°F18.2°C 50.2°F10.1°C 64% 1.2 mph SE1.9 kmh SE -- 30.18 in1022.0 mb 0.00 in0.0 mm 0.00 in0.0 mm 0.04 in1.0 mm
07:52 PM 64.6°F18.1°C 50.0°F10.0°C 64% 1.8 mph SE2.9 kmh SE 5.6 mph9.0 kmh 30.19 in1022.4 mb 0.00 in0.0 mm 0.00 in0.0 mm 0.04 in1.0 mm
08:14 PM 64.4°F18.0°C 50.0°F10.0°C 64% 1.3 mph SE2.1 kmh SE 3.1 mph5.0 kmh 30.19 in1022.4 mb 0.00 in0.0 mm 0.00 in0.0 mm 0.04 in1.0 mm
08:35 PM 64.4°F18.0°C 50.0°F10.0°C 64% 0.7 mph S1.1 kmh S 1.8 mph2.9 kmh 30.19 in1022.4 mb 0.00 in0.0 mm 0.00 in0.0 mm 0.04 in1.0 mm
08:51 PM 64.4°F18.0°C 50.0°F10.0°C 64% 0.6 mph S1.0 kmh S -- 30.19 in1022.4 mb 0.00 in0.0 mm 0.00 in0.0 mm 0.04 in1.0 mm
08:55 PM 64.2°F17.9°C 49.8°F9.9°C 64% 1.3 mph SE2.1 kmh SE 3.1 mph5.0 kmh 30.19 in1022.4 mb 0.00 in0.0 mm 0.00 in0.0 mm 0.04 in1.0 mm
09:15 PM 64.2°F17.9°C 50.2°F10.1°C 65% 1.3 mph SE2.1 kmh SE 4.3 mph6.9 kmh 30.19 in1022.4 mb 0.00 in0.0 mm 0.00 in0.0 mm 0.04 in1.0 mm
09:36 PM 64.2°F17.9°C 50.2°F10.1°C 65% 1.3 mph S2.1 kmh S 2.5 mph4.0 kmh 30.19 in1022.4 mb 0.00 in0.0 mm 0.00 in0.0 mm 0.04 in1.0 mm
09:51 PM 64.2°F17.9°C 50.2°F10.1°C 65% 1.2 mph S1.9 kmh S -- 30.19 in1022.4 mb 0.00 in0.0 mm 0.00 in0.0 mm 0.04 in1.0 mm
09:55 PM 64.0°F17.8°C 50.0°F10.0°C 65% 0.7 mph SSW1.1 kmh SSW 2.5 mph4.0 kmh 30.19 in1022.4 mb 0.00 in0.0 mm 0.00 in0.0 mm 0.04 in1.0 mm
10:16 PM 63.9°F17.7°C 49.8°F9.9°C 65% 0.7 mph S1.1 kmh S 4.3 mph6.9 kmh 30.19 in1022.4 mb 0.00 in0.0 mm 0.00 in0.0 mm 0.04 in1.0 mm
10:36 PM 63.7°F17.6°C 49.6°F9.8°C 65% 0.7 mph SSE1.1 kmh SSE 3.1 mph5.0 kmh 30.19 in1022.4 mb 0.00 in0.0 mm 0.00 in0.0 mm 0.04 in1.0 mm
10:51 PM 63.7°F17.6°C 49.6°F9.8°C 65% 0.6 mph SSE1.0 kmh SSE -- 30.19 in1022.4 mb 0.00 in0.0 mm 0.00 in0.0 mm 0.04 in1.0 mm
10:56 PM 63.7°F17.6°C 49.6°F9.8°C 65% 0.7 mph SSE1.1 kmh SSE 2.5 mph4.0 kmh 30.19 in1022.4 mb 0.00 in0.0 mm 0.00 in0.0 mm 0.03 in0.8 mm
11:17 PM 63.5°F17.5°C 49.5°F9.7°C 65% 0.7 mph SSE1.1 kmh SSE 2.5 mph4.0 kmh 30.19 in1022.4 mb 0.00 in0.0 mm 0.00 in0.0 mm 0.03 in0.8 mm
11:36 PM 63.5°F17.5°C 49.8°F9.9°C 66% 0.7 mph SSE1.1 kmh SSE 1.8 mph2.9 kmh 30.18 in1022.0 mb 0.00 in0.0 mm 0.00 in0.0 mm 0.03 in0.8 mm
11:51 PM 63.5°F17.5°C 49.8°F9.9°C 66% 0.6 mph SSE1.0 kmh SSE -- 30.18 in1022.0 mb 0.00 in0.0 mm 0.00 in0.0 mm 0.03 in0.8 mm
11:57 PM 63.3°F17.4°C 49.6°F9.8°C 66% 0.7 mph SE1.1 kmh SE 3.1 mph5.0 kmh 30.19 in1022.4 mb 0.00 in0.0 mm 0.00 in0.0 mm 0.03 in0.8 mm